Time;durP1;ratioP1;P1;durP2;ratioP2;P2;SDS_P1;SDS_P2;PMS_P1;PMS_P2;Temp;Humidity;BMP_temperature;BMP_pressure;BME280_temperature;BME280_humidity;BME280_pressure;Samples;Min_cycle;Max_cycle;Signal;HPM_P1;HPM_P2
2022/05/11 00:02:11;;;;;;;3.60;2.58;;;;;;;;;;5008507;28;20054;-68
2022/05/11 00:04:43;;;;;;;5.45;3.38;;;;;;;;;;5008758;28;20050;-67
2022/05/11 00:07:13;;;;;;;8.02;5.60;;;;;;;;;;5024425;28;20069;-67
2022/05/11 00:09:44;;;;;;;8.82;4.50;;;;;;;;;;4992427;28;20501;-67
2022/05/11 00:12:15;;;;;;;8.02;4.18;;;;;;;;;;5008517;28;20054;-67
2022/05/11 00:14:45;;;;;;;8.00;3.95;;;;;;;;;;5008867;28;20075;-67
2022/05/11 00:17:16;;;;;;;7.75;4.35;;;;;;;;;;5008928;28;20537;-66
2022/05/11 00:19:46;;;;;;;6.35;3.78;;;;;;;;;;5008812;28;20064;-67
2022/05/11 00:22:17;;;;;;;7.25;3.50;;;;;;;;;;4992776;28;20418;-68
2022/05/11 00:24:47;;;;;;;8.40;4.40;;;;;;;;;;5008728;28;20498;-71
2022/05/11 00:27:17;;;;;;;7.90;4.50;;;;;;;;;;4976577;28;20053;-71
2022/05/11 00:29:48;;;;;;;5.78;4.10;;;;;;;;;;4930847;29;20051;-72
2022/05/11 00:32:19;;;;;;;8.05;4.45;;;;;;;;;;4931512;29;20060;-71
2022/05/11 00:34:50;;;;;;;9.07;5.13;;;;;;;;;;4931582;29;20066;-70
2022/05/11 00:37:21;;;;;;;8.45;4.55;;;;;;;;;;4950331;29;20126;-70
2022/05/11 00:39:52;;;;;;;9.55;5.07;;;;;;;;;;4899415;29;20051;-67
2022/05/11 00:42:22;;;;;;;10.07;5.15;;;;;;;;;;4915332;29;20070;-70
2022/05/11 00:44:55;;;;;;;9.43;5.38;;;;;;;;;;4899531;29;20050;-69
2022/05/11 00:47:34;;;;;;;8.23;4.78;;;;;;;;;;4931177;29;20103;-69
2022/05/11 00:50:10;;;;;;;10.23;5.63;;;;;;;;;;4930821;29;20058;-69
2022/05/11 00:53:11;;;;;;;10.32;5.30;;;;;;;;;;4931081;29;20092;-69
2022/05/11 00:55:47;;;;;;;10.10;5.57;;;;;;;;;;4931128;29;20052;-69
2022/05/11 00:58:25;;;;;;;11.90;5.93;;;;;;;;;;4899271;29;20048;-69
2022/05/11 01:00:56;;;;;;;10.52;5.55;;;;;;;;;;4933173;29;20059;-68
2022/05/11 01:03:51;;;;;;;11.63;6.38;;;;;;;;;;4934516;29;20078;-68
2022/05/11 01:06:23;;;;;;;17.02;9.60;;;;;;;;;;4939604;28;20060;-68
2022/05/11 01:08:53;;;;;;;13.98;6.40;;;;;;;;;;5012016;28;20057;-67
2022/05/11 01:11:23;;;;;;;10.50;5.93;;;;;;;;;;5008302;28;20057;-66
2022/05/11 01:13:54;;;;;;;10.95;5.82;;;;;;;;;;5032149;28;20050;-67
2022/05/11 01:16:27;;;;;;;10.63;5.50;;;;;;;;;;5031936;28;20053;-67
2022/05/11 01:18:59;;;;;;;11.80;5.90;;;;;;;;;;4998961;28;20165;-67
2022/05/11 01:21:45;;;;;;;11.27;5.88;;;;;;;;;;5032970;28;20500;-67
2022/05/11 01:24:27;;;;;;;11.18;6.10;;;;;;;;;;5051626;28;20052;-67
2022/05/11 01:26:58;;;;;;;12.60;6.15;;;;;;;;;;5051653;28;20049;-67
2022/05/11 01:29:28;;;;;;;10.40;5.75;;;;;;;;;;5051488;28;20049;-66
2022/05/11 01:31:58;;;;;;;11.05;6.07;;;;;;;;;;5051706;28;20056;-67
2022/05/11 01:34:29;;;;;;;10.80;5.07;;;;;;;;;;4991885;28;20422;-66
2022/05/11 01:37:00;;;;;;;12.75;5.97;;;;;;;;;;5030949;28;20045;-67
2022/05/11 01:39:30;;;;;;;12.35;6.57;;;;;;;;;;4992010;28;20079;-67
2022/05/11 01:42:00;;;;;;;13.38;5.60;;;;;;;;;;4960734;28;20458;-67
2022/05/11 01:44:31;;;;;;;13.50;6.10;;;;;;;;;;4991957;28;20062;-67
2022/05/11 01:47:02;;;;;;;9.63;5.18;;;;;;;;;;4991728;28;20651;-67
2022/05/11 01:49:32;;;;;;;12.95;5.28;;;;;;;;;;4992013;28;20860;-67
2022/05/11 01:52:03;;;;;;;8.25;4.93;;;;;;;;;;4991852;28;20062;-67
2022/05/11 01:54:34;;;;;;;10.40;5.68;;;;;;;;;;4959279;28;20066;-67
2022/05/11 01:57:05;;;;;;;9.30;5.35;;;;;;;;;;4991232;28;20160;-67
2022/05/11 01:59:35;;;;;;;8.23;4.30;;;;;;;;;;4971816;28;20066;-67
2022/05/11 02:02:05;;;;;;;7.90;4.55;;;;;;;;;;4955557;28;20058;-67
2022/05/11 02:10:13;;;;;;;8.05;4.00;;;;;;;;;;4972016;28;20058;-67
2022/05/11 02:12:44;;;;;;;9.52;3.80;;;;;;;;;;5000356;28;20529;-67
2022/05/11 02:15:16;;;;;;;7.38;4.00;;;;;;;;;;4972216;28;20058;-67
2022/05/11 02:17:47;;;;;;;6.25;3.75;;;;;;;;;;4971899;28;20062;-67
2022/05/11 02:20:19;;;;;;;6.97;3.80;;;;;;;;;;4939648;28;20117;-67
2022/05/11 02:22:51;;;;;;;7.05;3.83;;;;;;;;;;4971689;28;20058;-67
2022/05/11 02:25:22;;;;;;;;;;;;;;;;;;4972097;28;20059;-67
2022/05/11 02:27:54;;;;;;;8.65;3.50;;;;;;;;;;4971688;28;19929;-67
2022/05/11 02:30:28;;;;;;;;;;;;;;;;;;4972289;28;20063;-67
2022/05/11 02:32:58;;;;;;;6.57;3.80;;;;;;;;;;4971847;28;19929;-67
2022/05/11 02:35:29;;;;;;;8.00;3.67;;;;;;;;;;5003047;28;20533;-67
2022/05/11 02:38:09;;;;;;;10.43;4.05;;;;;;;;;;5026987;28;20057;-67
2022/05/11 02:40:41;;;;;;;6.88;3.88;;;;;;;;;;5029974;28;20060;-67
2022/05/11 02:43:11;;;;;;;8.38;4.50;;;;;;;;;;5030252;28;20049;-67
2022/05/11 02:45:43;;;;;;;8.50;4.55;;;;;;;;;;4993898;28;20046;-67
2022/05/11 02:48:18;;;;;;;6.95;3.50;;;;;;;;;;5010553;28;20406;-68
2022/05/11 02:50:59;;;;;;;7.78;3.72;;;;;;;;;;4942219;28;20047;-67
2022/05/11 02:53:32;;;;;;;11.45;4.88;;;;;;;;;;5037098;28;20236;-68
2022/05/11 02:56:03;;;;;;;11.90;3.83;;;;;;;;;;5049762;28;20044;-67
2022/05/11 02:58:34;;;;;;;7.15;3.85;;;;;;;;;;5049581;28;20052;-67
2022/05/11 03:01:05;;;;;;;6.90;3.50;;;;;;;;;;4958388;28;20546;-67
2022/05/11 03:03:35;;;;;;;8.32;3.67;;;;;;;;;;4974176;28;20054;-67
2022/05/11 03:06:06;;;;;;;10.00;4.15;;;;;;;;;;4990262;28;20089;-67
2022/05/11 03:08:38;;;;;;;7.75;3.85;;;;;;;;;;4990613;28;20054;-67
2022/05/11 03:11:08;;;;;;;7.70;3.97;;;;;;;;;;4990348;28;20054;-67
2022/05/11 03:13:38;;;;;;;7.82;4.07;;;;;;;;;;4942583;28;20059;-67
2022/05/11 03:16:09;;;;;;;7.88;3.80;;;;;;;;;;4970583;28;20054;-67
2022/05/11 03:18:40;;;;;;;10.48;3.83;;;;;;;;;;4938615;28;20063;-67
2022/05/11 03:21:11;;;;;;;7.90;4.25;;;;;;;;;;4970568;28;20061;-66
2022/05/11 03:23:42;;;;;;;8.52;4.38;;;;;;;;;;4970804;28;20053;-66
2022/05/11 03:26:14;;;;;;;7.43;4.03;;;;;;;;;;4970543;28;20059;-67
2022/05/11 03:28:45;;;;;;;9.43;4.30;;;;;;;;;;4983229;28;20054;-67
2022/05/11 03:31:16;;;;;;;7.53;4.35;;;;;;;;;;4989754;28;20085;-67
2022/05/11 03:36:36;;;;;;;9.07;4.63;;;;;;;;;;4990062;28;20070;-67
2022/05/11 03:39:07;;;;;;;8.40;4.38;;;;;;;;;;4960803;28;20532;-67
2022/05/11 03:41:38;;;;;;;8.65;3.40;;;;;;;;;;5009630;28;20379;-67
2022/05/11 03:44:08;;;;;;;8.63;4.57;;;;;;;;;;5009605;28;20050;-67
2022/05/11 03:46:40;;;;;;;10.25;4.57;;;;;;;;;;5009175;28;20541;-67
2022/05/11 03:49:11;;;;;;;12.48;4.60;;;;;;;;;;4961177;28;20583;-66
2022/05/11 03:51:42;;;;;;;8.60;4.80;;;;;;;;;;5009403;28;20069;-68
2022/05/11 03:54:12;;;;;;;9.13;4.70;;;;;;;;;;5021978;28;20045;-67
2022/05/11 03:56:42;;;;;;;8.07;4.68;;;;;;;;;;4996992;28;20057;-67
2022/05/11 03:59:13;;;;;;;9.38;4.68;;;;;;;;;;5069813;28;20056;-67
2022/05/11 04:01:43;;;;;;;7.90;3.90;;;;;;;;;;5088703;28;20411;-67
2022/05/11 04:04:14;;;;;;;7.93;4.82;;;;;;;;;;5088931;28;20052;-67
2022/05/11 04:06:45;;;;;;;7.70;4.25;;;;;;;;;;5056395;28;20060;-67
2022/05/11 04:09:16;;;;;;;9.57;4.80;;;;;;;;;;5022845;28;20048;-67
2022/05/11 04:11:47;;;;;;;7.05;4.05;;;;;;;;;;5089005;28;20044;-67
2022/05/11 04:14:17;;;;;;;8.00;4.75;;;;;;;;;;5088668;28;20052;-67
2022/05/11 04:16:53;;;;;;;8.68;4.45;;;;;;;;;;5038483;28;20044;-66
2022/05/11 04:19:23;;;;;;;8.25;4.15;;;;;;;;;;5088760;28;20503;-67
2022/05/11 04:21:54;;;;;;;10.15;4.47;;;;;;;;;;5055394;28;20479;-67
2022/05/11 04:24:25;;;;;;;9.60;4.22;;;;;;;;;;5072252;28;20052;-67
2022/05/11 04:26:55;;;;;;;8.80;4.15;;;;;;;;;;5048463;28;20041;-67
2022/05/11 04:29:26;;;;;;;6.60;3.83;;;;;;;;;;5048378;28;20057;-67
2022/05/11 04:31:57;;;;;;;10.27;5.00;;;;;;;;;;5048373;28;20057;-67
2022/05/11 04:34:28;;;;;;;8.55;4.70;;;;;;;;;;5048676;28;20041;-67
2022/05/11 04:36:58;;;;;;;9.05;4.05;;;;;;;;;;5052563;28;20064;-67
2022/05/11 04:39:28;;;;;;;6.93;4.20;;;;;;;;;;5019140;28;20103;-67
2022/05/11 04:41:59;;;;;;;8.73;4.40;;;;;;;;;;5052281;28;20052;-67
2022/05/11 04:44:30;;;;;;;11.27;4.57;;;;;;;;;;5019542;28;20056;-66
2022/05/11 04:47:12;;;;;;;8.48;4.70;;;;;;;;;;5052284;28;20049;-66
2022/05/11 04:49:43;;;;;;;11.30;4.15;;;;;;;;;;5003029;28;20056;-67
2022/05/11 04:52:16;;;;;;;9.73;4.80;;;;;;;;;;4986963;28;20057;-67
2022/05/11 04:54:49;;;;;;;10.90;4.50;;;;;;;;;;5002734;28;20087;-66
2022/05/11 04:57:20;;;;;;;11.52;4.57;;;;;;;;;;5018862;28;20053;-67
2022/05/11 04:59:52;;;;;;;8.40;4.38;;;;;;;;;;5051958;28;20056;-67
2022/05/11 05:02:25;;;;;;;8.88;3.72;;;;;;;;;;5052183;28;20424;-67
2022/05/11 05:05:00;;;;;;;11.25;4.45;;;;;;;;;;5018572;28;20563;-67
2022/05/11 05:07:34;;;;;;;12.85;5.22;;;;;;;;;;5018845;28;20060;-67
2022/05/11 05:10:07;;;;;;;9.00;4.57;;;;;;;;;;5035343;28;20057;-66
2022/05/11 05:12:38;;;;;;;10.75;4.40;;;;;;;;;;4981579;28;20088;-67
2022/05/11 05:15:10;;;;;;;9.93;3.60;;;;;;;;;;5054294;28;20420;-67
2022/05/11 05:17:40;;;;;;;;;;;;;;;;;;5036676;28;20057;-67
2022/05/11 05:20:13;;;;;;;8.15;4.28;;;;;;;;;;5068801;28;19936;-67
2022/05/11 05:22:43;;;;;;;8.43;4.03;;;;;;;;;;5051549;28;20401;-67
2022/05/11 05:25:13;;;;;;;10.75;4.60;;;;;;;;;;5051572;28;20053;-66
2022/05/11 05:27:44;;;;;;;8.98;5.50;;;;;;;;;;5051937;28;20053;-66
2022/05/11 05:33:04;;;;;;;12.10;5.25;;;;;;;;;;5051568;28;20045;-66
2022/05/11 05:35:35;;;;;;;10.70;6.55;;;;;;;;;;5051355;28;20057;-67
2022/05/11 05:38:05;;;;;;;10.05;4.88;;;;;;;;;;5051600;28;20045;-67
2022/05/11 05:40:36;;;;;;;10.43;4.13;;;;;;;;;;5051561;28;20420;-67
2022/05/11 05:43:07;;;;;;;9.57;4.70;;;;;;;;;;5051430;28;20052;-67
2022/05/11 05:45:37;;;;;;;8.25;3.90;;;;;;;;;;5050927;28;20057;-67
2022/05/11 05:48:07;;;;;;;7.85;4.50;;;;;;;;;;5050326;28;20060;-67
2022/05/11 05:50:38;;;;;;;8.55;4.32;;;;;;;;;;5051061;28;20056;-67
2022/05/11 05:53:08;;;;;;;11.65;4.72;;;;;;;;;;5051244;28;20049;-67
2022/05/11 05:55:39;;;;;;;7.78;3.78;;;;;;;;;;5017418;28;20380;-67
2022/05/11 05:58:09;;;;;;;10.27;4.50;;;;;;;;;;5050998;28;20099;-67
2022/05/11 06:00:40;;;;;;;8.80;5.25;;;;;;;;;;5018164;28;20046;-67
2022/05/11 06:03:12;;;;;;;11.65;3.88;;;;;;;;;;4962856;28;20441;-67
2022/05/11 06:05:43;;;;;;;8.13;4.43;;;;;;;;;;4994400;28;20061;-66
2022/05/11 06:08:16;;;;;;;8.98;4.72;;;;;;;;;;4991382;28;20058;-67
2022/05/11 06:10:47;;;;;;;8.98;4.53;;;;;;;;;;4960907;28;20061;-67
2022/05/11 06:13:23;;;;;;;8.00;4.50;;;;;;;;;;4974890;28;20554;-67
2022/05/11 06:15:55;;;;;;;9.75;4.75;;;;;;;;;;4958934;28;20625;-67
2022/05/11 06:18:26;;;;;;;10.77;4.70;;;;;;;;;;4991492;28;20521;-67
2022/05/11 06:20:57;;;;;;;11.15;4.60;;;;;;;;;;4952480;28;20066;-67
2022/05/11 06:23:28;;;;;;;8.82;4.85;;;;;;;;;;4920706;29;20058;-67
2022/05/11 06:25:58;;;;;;;10.05;4.80;;;;;;;;;;4920943;28;20047;-67
2022/05/11 06:28:29;;;;;;;11.40;4.75;;;;;;;;;;4920988;28;20058;-67
2022/05/11 06:31:19;;;;;;;11.65;4.40;;;;;;;;;;4933331;29;20055;-67
2022/05/11 06:33:53;;;;;;;8.18;4.47;;;;;;;;;;4931348;28;20496;-67
2022/05/11 06:36:24;;;;;;;10.52;4.38;;;;;;;;;;4952584;28;20055;-68
2022/05/11 06:38:54;;;;;;;8.43;4.53;;;;;;;;;;4966653;28;20059;-67
2022/05/11 06:41:28;;;;;;;8.48;4.15;;;;;;;;;;4939458;28;20059;-67
2022/05/11 06:43:59;;;;;;;8.05;4.43;;;;;;;;;;4942815;28;20060;-68
2022/05/11 06:46:29;;;;;;;10.25;4.80;;;;;;;;;;4933813;28;20059;-67
2022/05/11 06:49:00;;;;;;;9.15;4.57;;;;;;;;;;4958296;28;20058;-69
2022/05/11 06:51:30;;;;;;;13.48;4.10;;;;;;;;;;4990743;28;20415;-67
2022/05/11 06:59:38;;;;;;;8.32;4.57;;;;;;;;;;5026685;28;20166;-67
2022/05/11 07:02:08;;;;;;;9.02;4.22;;;;;;;;;;4997696;28;20061;-67
2022/05/11 07:04:40;;;;;;;8.77;4.45;;;;;;;;;;4997061;28;20060;-67
2022/05/11 07:07:11;;;;;;;10.52;4.63;;;;;;;;;;5029952;28;20045;-67
2022/05/11 07:09:42;;;;;;;10.52;5.30;;;;;;;;;;5067733;28;20072;-67
2022/05/11 07:12:21;;;;;;;9.93;4.13;;;;;;;;;;5072028;28;20051;-67
2022/05/11 07:14:57;;;;;;;9.45;4.18;;;;;;;;;;5036633;28;20060;-67
2022/05/11 07:17:34;;;;;;;7.75;4.28;;;;;;;;;;5049300;28;20049;-67
2022/05/11 07:20:10;;;;;;;12.88;4.90;;;;;;;;;;5033481;28;20505;-67
2022/05/11 07:22:41;;;;;;;8.38;4.63;;;;;;;;;;5000168;28;20056;-67
2022/05/11 07:25:15;;;;;;;12.70;5.70;;;;;;;;;;5032975;28;20053;-67
2022/05/11 07:27:46;;;;;;;8.15;4.30;;;;;;;;;;5049564;28;20049;-67
2022/05/11 07:30:20;;;;;;;8.40;5.00;;;;;;;;;;5049364;28;20057;-67
2022/05/11 07:32:58;;;;;;;10.00;4.13;;;;;;;;;;5029409;28;20395;-67
2022/05/11 07:35:30;;;;;;;9.55;4.80;;;;;;;;;;5029198;28;20061;-67
2022/05/11 07:38:00;;;;;;;10.52;4.63;;;;;;;;;;5029289;28;20133;-67
2022/05/11 07:40:31;;;;;;;8.23;4.45;;;;;;;;;;5029205;28;20049;-67
2022/05/11 07:43:01;;;;;;;9.40;4.88;;;;;;;;;;5029132;28;20061;-68
2022/05/11 07:45:32;;;;;;;10.57;5.25;;;;;;;;;;5013048;28;20053;-67
2022/05/11 07:48:02;;;;;;;8.43;4.35;;;;;;;;;;4957333;28;20065;-67
2022/05/11 07:50:33;;;;;;;8.10;4.47;;;;;;;;;;4970019;28;20070;-68
2022/05/11 07:53:04;;;;;;;8.10;4.00;;;;;;;;;;4938140;28;20400;-68
2022/05/11 07:55:36;;;;;;;8.43;4.97;;;;;;;;;;4936937;28;20062;-68
2022/05/11 08:00:55;;;;;;;10.45;4.55;;;;;;;;;;4953944;28;20054;-67
2022/05/11 08:03:25;;;;;;;9.20;4.78;;;;;;;;;;4970193;28;20063;-68
2022/05/11 08:05:58;;;;;;;8.18;4.22;;;;;;;;;;4937809;28;20426;-67
2022/05/11 08:08:30;;;;;;;9.88;5.00;;;;;;;;;;4970198;28;20521;-67
2022/05/11 08:11:00;;;;;;;10.40;4.70;;;;;;;;;;4982448;28;20062;-68
2022/05/11 08:13:32;;;;;;;9.13;4.47;;;;;;;;;;4989321;28;20066;-67
2022/05/11 08:16:02;;;;;;;9.27;4.93;;;;;;;;;;4941835;28;20061;-68
2022/05/11 08:18:33;;;;;;;8.48;4.95;;;;;;;;;;4941933;28;20065;-67
2022/05/11 08:21:04;;;;;;;9.90;6.13;;;;;;;;;;4957168;28;20067;-68
2022/05/11 08:23:35;;;;;;;9.50;5.60;;;;;;;;;;4989189;28;20054;-68
2022/05/11 08:26:05;;;;;;;10.52;4.30;;;;;;;;;;5030144;28;20464;-68
2022/05/11 08:28:35;;;;;;;10.70;5.15;;;;;;;;;;5061569;28;20052;-67
2022/05/11 08:33:55;;;;;;;11.40;5.68;;;;;;;;;;5051634;28;20048;-67
2022/05/11 08:36:41;;;;;;;13.85;5.40;;;;;;;;;;5049664;28;20063;-67
2022/05/11 08:39:11;;;;;;;9.25;5.18;;;;;;;;;;5070814;28;20056;-67
2022/05/11 08:41:49;;;;;;;9.55;5.97;;;;;;;;;;5070733;28;20488;-68
2022/05/11 08:44:27;;;;;;;10.18;5.32;;;;;;;;;;5070716;28;20039;-67
2022/05/11 08:47:34;;;;;;;9.80;5.22;;;;;;;;;;5070776;28;20041;-67
2022/05/11 08:50:11;;;;;;;12.10;5.47;;;;;;;;;;5035824;28;20044;-68
2022/05/11 08:53:02;;;;;;;10.30;4.53;;;;;;;;;;5015684;28;20448;-67
2022/05/11 08:55:46;;;;;;;9.20;4.93;;;;;;;;;;5048370;28;20081;-67
2022/05/11 08:58:45;;;;;;;9.35;5.10;;;;;;;;;;5048281;28;20060;-67
2022/05/11 09:01:37;;;;;;;10.57;5.53;;;;;;;;;;5021291;28;20049;-67
2022/05/11 09:04:11;;;;;;;7.93;4.03;;;;;;;;;;5048179;28;20420;-68
2022/05/11 09:06:44;;;;;;;10.10;4.80;;;;;;;;;;5048092;28;20076;-67
2022/05/11 09:09:16;;;;;;;10.05;5.10;;;;;;;;;;5047923;28;20056;-68
2022/05/11 09:11:50;;;;;;;;;;;;;;;;;;5048596;28;20072;-67
2022/05/11 09:14:34;;;;;;;12.98;4.82;;;;;;;;;;4998854;28;19920;-67
2022/05/11 09:17:20;;;;;;;9.13;4.65;;;;;;;;;;5031408;28;20632;-67
2022/05/11 09:20:05;;;;;;;8.60;4.70;;;;;;;;;;5031287;28;20049;-67
2022/05/11 09:22:58;;;;;;;9.20;4.57;;;;;;;;;;5051466;28;20052;-68
2022/05/11 09:25:36;;;;;;;10.45;5.10;;;;;;;;;;5051962;28;20041;-68
2022/05/11 09:28:28;;;;;;;9.82;4.82;;;;;;;;;;5051737;28;20516;-68
2022/05/11 09:31:05;;;;;;;9.95;5.72;;;;;;;;;;5007433;28;20058;-68
2022/05/11 09:33:39;;;;;;;9.45;5.32;;;;;;;;;;5011975;28;20060;-66
2022/05/11 09:36:11;;;;;;;11.77;5.93;;;;;;;;;;4991962;28;20046;-68
2022/05/11 09:39:15;;;;;;;12.10;5.38;;;;;;;;;;4977959;28;20087;-67
2022/05/11 09:41:52;;;;;;;10.85;5.10;;;;;;;;;;4972807;28;20054;-67
2022/05/11 09:44:27;;;;;;;10.75;6.03;;;;;;;;;;4956800;28;20050;-67
2022/05/11 09:46:59;;;;;;;11.10;5.40;;;;;;;;;;4940399;28;20047;-67
2022/05/11 09:49:29;;;;;;;12.75;5.00;;;;;;;;;;4956548;28;20059;-67
2022/05/11 09:51:59;;;;;;;8.20;4.28;;;;;;;;;;4972374;28;20422;-67
2022/05/11 09:54:51;;;;;;;10.07;5.63;;;;;;;;;;4972604;28;20059;-67
2022/05/11 09:57:28;;;;;;;14.55;5.95;;;;;;;;;;4952495;28;20062;-67
2022/05/11 10:00:22;;;;;;;9.93;5.40;;;;;;;;;;4952808;29;20066;-70
2022/05/11 10:02:56;;;;;;;10.00;5.30;;;;;;;;;;4952679;29;20063;-65
2022/05/11 10:05:30;;;;;;;10.80;5.40;;;;;;;;;;4937252;29;20043;-67
2022/05/11 10:08:03;;;;;;;10.63;5.05;;;;;;;;;;4960780;28;20055;-67
2022/05/11 10:10:43;;;;;;;9.55;4.68;;;;;;;;;;4972174;28;20427;-67
2022/05/11 10:13:28;;;;;;;10.88;6.45;;;;;;;;;;4971720;28;20054;-66
2022/05/11 10:22:02;;;;;;;11.18;6.18;;;;;;;;;;4942865;29;20582;-67
2022/05/11 10:25:04;;;;;;;11.32;6.35;;;;;;;;;;4933738;29;20201;-67
2022/05/11 10:27:40;;;;;;;14.30;5.82;;;;;;;;;;4933337;29;20043;-65
2022/05/11 10:30:16;;;;;;;12.75;5.50;;;;;;;;;;4966055;28;20050;-67
2022/05/11 10:32:48;;;;;;;10.00;5.80;;;;;;;;;;4951626;28;20066;-66
2022/05/11 10:35:28;;;;;;;13.75;5.38;;;;;;;;;;4920476;29;20587;-68
2022/05/11 10:38:21;;;;;;;8.95;4.55;;;;;;;;;;4905775;29;20412;-66
2022/05/11 10:41:11;;;;;;;8.65;4.65;;;;;;;;;;4952450;29;20056;-69
2022/05/11 10:44:04;;;;;;;9.18;4.60;;;;;;;;;;4952140;29;20066;-67
2022/05/11 10:46:38;;;;;;;10.15;5.18;;;;;;;;;;4895081;29;20059;-66
2022/05/11 10:49:26;;;;;;;9.18;4.10;;;;;;;;;;4879814;29;20469;-66
2022/05/11 10:52:09;;;;;;;9.18;5.05;;;;;;;;;;4857314;29;20061;-66
2022/05/11 10:54:48;;;;;;;10.00;4.60;;;;;;;;;;4857835;29;20062;-66
2022/05/11 10:57:34;;;;;;;;;;;;;;;;;;4857618;29;20058;-66
2022/05/11 11:00:14;;;;;;;8.68;4.50;;;;;;;;;;4842084;29;19924;-66
2022/05/11 11:03:12;;;;;;;8.75;4.65;;;;;;;;;;4827058;29;20878;-66
2022/05/11 11:09:12;;;;;;;9.68;5.13;;;;;;;;;;4912487;29;20052;-66
2022/05/11 11:12:03;;;;;;;8.98;4.55;;;;;;;;;;4932801;29;20060;-65
2022/05/11 11:14:41;;;;;;;;;;;;;;;;;;4933010;29;20051;-65
2022/05/11 11:17:17;;;;;;;8.43;4.28;;;;;;;;;;4900697;29;19939;-65
2022/05/11 11:19:53;;;;;;;12.93;6.28;;;;;;;;;;4901692;29;20059;-66
2022/05/11 11:22:24;;;;;;;14.23;6.30;;;;;;;;;;4932315;29;20064;-66
2022/05/11 11:25:12;;;;;;;12.27;5.72;;;;;;;;;;5027325;28;20060;-66
2022/05/11 11:28:08;;;;;;;8.93;4.95;;;;;;;;;;4996364;28;20057;-66
2022/05/11 11:30:41;;;;;;;8.27;4.15;;;;;;;;;;5035119;28;20416;-67
2022/05/11 11:33:19;;;;;;;9.23;4.78;;;;;;;;;;5089506;28;20046;-66
2022/05/11 11:36:30;;;;;;;11.50;6.38;;;;;;;;;;5089313;28;20052;-66
2022/05/11 11:39:04;;;;;;;10.32;5.35;;;;;;;;;;5089390;28;20052;-66
2022/05/11 11:41:45;;;;;;;6.82;3.95;;;;;;;;;;5089354;28;20044;-66
2022/05/11 11:44:30;;;;;;;8.23;4.30;;;;;;;;;;5039079;28;20048;-65
2022/05/11 11:47:00;;;;;;;7.05;4.28;;;;;;;;;;5089178;28;20040;-66
2022/05/11 11:49:33;;;;;;;7.65;4.10;;;;;;;;;;5048839;28;20052;-66
2022/05/11 11:52:34;;;;;;;7.75;4.18;;;;;;;;;;5009110;28;20054;-66
2022/05/11 11:55:32;;;;;;;6.18;3.45;;;;;;;;;;5009287;28;20449;-66
2022/05/11 11:58:25;;;;;;;7.30;4.50;;;;;;;;;;4947589;28;20053;-66
2022/05/11 12:01:06;;;;;;;7.15;4.15;;;;;;;;;;5008867;28;20060;-65
2022/05/11 12:03:53;;;;;;;6.25;3.60;;;;;;;;;;4977228;28;20545;-65
2022/05/11 12:15:25;;;;;;;5.57;3.40;;;;;;;;;;4989424;28;20058;-66
2022/05/11 12:17:55;;;;;;;5.25;3.00;;;;;;;;;;4973197;28;20062;-65
2022/05/11 12:20:26;;;;;;;6.05;3.40;;;;;;;;;;4989461;28;20054;-66
2022/05/11 12:22:59;;;;;;;32.30;15.30;;;;;;;;;;4956593;28;20974;-66
2022/05/11 12:25:38;;;;;;;11.65;6.00;;;;;;;;;;4973336;28;20050;-65
2022/05/11 12:28:22;;;;;;;8.80;4.82;;;;;;;;;;4992298;28;20060;-66
2022/05/11 12:30:52;;;;;;;6.78;3.70;;;;;;;;;;5034948;28;20048;-66
2022/05/11 12:33:25;;;;;;;6.03;3.10;;;;;;;;;;5068490;28;20531;-66
2022/05/11 12:35:57;;;;;;;7.35;4.03;;;;;;;;;;5068366;28;20063;-65
2022/05/11 12:38:32;;;;;;;5.72;3.45;;;;;;;;;;5036140;28;20135;-66
2022/05/11 12:41:17;;;;;;;6.03;3.20;;;;;;;;;;5068327;28;20499;-66
2022/05/11 12:44:00;;;;;;;;;;;;;;;;;;5068926;28;20053;-66
2022/05/11 12:46:34;;;;;;;6.65;3.40;;;;;;;;;;5034979;28;20023;-65
2022/05/11 12:49:05;;;;;;;5.55;3.38;;;;;;;;;;5068934;28;20060;-66
2022/05/11 12:51:39;;;;;;;5.55;3.03;;;;;;;;;;5070735;28;20037;-65
2022/05/11 12:54:19;;;;;;;5.32;3.13;;;;;;;;;;5070769;28;20044;-65
2022/05/11 12:57:17;;;;;;;5.00;3.17;;;;;;;;;;5073285;28;21080;-65
2022/05/11 12:59:55;;;;;;;5.75;2.97;;;;;;;;;;5074978;28;20048;-65
2022/05/11 13:02:33;;;;;;;5.47;3.00;;;;;;;;;;5094811;28;20043;-66
2022/05/11 13:05:07;;;;;;;5.90;3.20;;;;;;;;;;5059700;28;20067;-66
2022/05/11 13:08:02;;;;;;;7.55;3.35;;;;;;;;;;5060430;28;20052;-65
2022/05/11 13:10:34;;;;;;;5.65;3.10;;;;;;;;;;5051878;28;20052;-66
2022/05/11 13:13:12;;;;;;;7.05;3.25;;;;;;;;;;4998853;28;20544;-65
2022/05/11 13:15:45;;;;;;;5.72;3.30;;;;;;;;;;5031871;28;20058;-65
2022/05/11 13:18:29;;;;;;;5.82;3.15;;;;;;;;;;5031727;28;20701;-64
2022/05/11 13:21:04;;;;;;;5.85;3.10;;;;;;;;;;4999105;28;20049;-65
2022/05/11 13:23:39;;;;;;;5.10;2.75;;;;;;;;;;4968572;28;20052;-65
2022/05/11 13:26:12;;;;;;;3.92;2.30;;;;;;;;;;4999051;28;20517;-65
2022/05/11 13:29:10;;;;;;;6.10;2.45;;;;;;;;;;4966805;28;20351;-65
2022/05/11 13:31:41;;;;;;;5.45;2.15;;;;;;;;;;5031454;28;20575;-65
2022/05/11 13:34:30;;;;;;;5.80;2.80;;;;;;;;;;5011774;28;20049;-65
2022/05/11 13:37:02;;;;;;;4.40;2.78;;;;;;;;;;4963256;28;20046;-65
2022/05/11 13:39:37;;;;;;;11.18;5.75;;;;;;;;;;5011803;28;20058;-65
2022/05/11 13:42:21;;;;;;;6.82;4.22;;;;;;;;;;5011397;28;20065;-65
2022/05/11 13:45:10;;;;;;;7.25;3.13;;;;;;;;;;4998798;28;20046;-65
2022/05/11 13:50:29;;;;;;;5.55;2.95;;;;;;;;;;4991650;28;20122;-65
2022/05/11 13:53:33;;;;;;;5.15;3.28;;;;;;;;;;4972122;28;20058;-65
2022/05/11 13:56:09;;;;;;;4.03;2.50;;;;;;;;;;4971740;28;20070;-65
2022/05/11 13:58:47;;;;;;;4.70;2.05;;;;;;;;;;4971804;28;20530;-65
2022/05/11 14:01:21;;;;;;;4.60;2.33;;;;;;;;;;4956429;28;20719;-65
2022/05/11 14:03:58;;;;;;;6.53;3.60;;;;;;;;;;4972085;28;20054;-65
2022/05/11 14:06:32;;;;;;;4.88;3.08;;;;;;;;;;4940090;28;20070;-65
2022/05/11 14:09:03;;;;;;;4.97;2.50;;;;;;;;;;4970980;28;20574;-65
2022/05/11 14:11:33;;;;;;;4.28;2.80;;;;;;;;;;4963675;28;20057;-65
2022/05/11 14:14:03;;;;;;;3.35;1.80;;;;;;;;;;4991354;28;20398;-65
2022/05/11 14:16:34;;;;;;;4.15;2.30;;;;;;;;;;4991343;28;20049;-65
2022/05/11 14:19:04;;;;;;;4.63;2.47;;;;;;;;;;4991298;28;20043;-65
2022/05/11 14:21:43;;;;;;;4.93;2.42;;;;;;;;;;4958732;28;20073;-65
2022/05/11 14:24:14;;;;;;;4.43;2.47;;;;;;;;;;4991242;28;20062;-66
2022/05/11 14:26:46;;;;;;;3.58;2.22;;;;;;;;;;4990756;28;20561;-65
2022/05/11 14:29:17;;;;;;;5.82;2.33;;;;;;;;;;4993721;28;20434;-65
2022/05/11 14:31:48;;;;;;;3.38;2.13;;;;;;;;;;5029758;28;20057;-65
2022/05/11 14:34:24;;;;;;;4.63;2.88;;;;;;;;;;5060512;28;20532;-65
2022/05/11 14:36:55;;;;;;;5.18;2.63;;;;;;;;;;5030379;28;20061;-64
2022/05/11 14:39:26;;;;;;;4.32;2.88;;;;;;;;;;5030334;28;20057;-65
2022/05/11 14:41:57;;;;;;;4.40;2.50;;;;;;;;;;5013845;28;20081;-65
2022/05/11 14:44:28;;;;;;;4.47;3.00;;;;;;;;;;5030333;28;20064;-64
2022/05/11 14:47:19;;;;;;;5.60;2.50;;;;;;;;;;5030138;28;20053;-65
2022/05/11 14:49:50;;;;;;;4.45;2.78;;;;;;;;;;5013712;28;20053;-64
2022/05/11 14:52:21;;;;;;;6.30;2.60;;;;;;;;;;5030277;28;20454;-65
2022/05/11 14:54:51;;;;;;;3.75;1.85;;;;;;;;;;5030014;28;20436;-65
2022/05/11 15:03:02;;;;;;;4.72;2.80;;;;;;;;;;4913722;29;20067;-64
2022/05/11 15:05:33;;;;;;;4.47;3.25;;;;;;;;;;4947366;28;20087;-65
2022/05/11 15:08:04;;;;;;;5.22;2.47;;;;;;;;;;4932449;29;20448;-65
2022/05/11 15:10:35;;;;;;;7.38;2.90;;;;;;;;;;4932499;29;20066;-64
2022/05/11 15:15:54;;;;;;;6.03;3.28;;;;;;;;;;4925813;28;20081;-64
2022/05/11 15:18:27;;;;;;;6.43;2.78;;;;;;;;;;4923776;28;20063;-64
2022/05/11 15:20:58;;;;;;;4.93;2.72;;;;;;;;;;4938639;28;20511;-64
2022/05/11 15:23:28;;;;;;;5.32;2.88;;;;;;;;;;4970825;28;20055;-65
2022/05/11 15:26:00;;;;;;;4.20;2.65;;;;;;;;;;4970897;28;20522;-64
2022/05/11 15:28:30;;;;;;;5.80;2.75;;;;;;;;;;4970315;28;20529;-64
2022/05/11 15:31:01;;;;;;;4.63;2.67;;;;;;;;;;4970428;28;20046;-64
2022/05/11 15:33:32;;;;;;;6.68;4.13;;;;;;;;;;4954429;28;20047;-64
2022/05/11 15:36:03;;;;;;;4.10;2.80;;;;;;;;;;4970609;28;20053;-64
2022/05/11 15:38:34;;;;;;;4.22;2.47;;;;;;;;;;5004635;28;20549;-65
2022/05/11 15:41:07;;;;;;;4.97;3.15;;;;;;;;;;5009545;28;20055;-64
2022/05/11 15:43:38;;;;;;;4.57;2.25;;;;;;;;;;4993962;28;20053;-65
2022/05/11 15:46:09;;;;;;;5.82;2.50;;;;;;;;;;4976844;28;20057;-64
2022/05/11 15:48:40;;;;;;;5.22;2.40;;;;;;;;;;4976856;28;20050;-65
2022/05/11 15:51:13;;;;;;;4.55;2.10;;;;;;;;;;5040712;28;20041;-65
2022/05/11 15:53:46;;;;;;;4.68;2.20;;;;;;;;;;5068842;28;20539;-65
2022/05/11 15:56:19;;;;;;;4.50;2.78;;;;;;;;;;5052950;28;20048;-65
2022/05/11 15:58:50;;;;;;;4.65;2.63;;;;;;;;;;5019834;28;20062;-65
2022/05/11 16:01:25;;;;;;;3.38;2.13;;;;;;;;;;5068626;28;20048;-64
2022/05/11 16:03:56;;;;;;;3.55;1.85;;;;;;;;;;5018782;28;20056;-63
2022/05/11 16:06:27;;;;;;;3.35;1.48;;;;;;;;;;5028460;28;20448;-65
2022/05/11 16:08:58;;;;;;;3.72;2.10;;;;;;;;;;5028459;28;20501;-64
2022/05/11 16:11:32;;;;;;;4.25;2.08;;;;;;;;;;5028834;28;20049;-64
2022/05/11 16:14:05;;;;;;;4.13;1.90;;;;;;;;;;4980231;28;20045;-64
2022/05/11 16:16:37;;;;;;;2.58;1.77;;;;;;;;;;5028597;28;20048;-64
2022/05/11 16:21:57;;;;;;;3.15;1.45;;;;;;;;;;5028581;28;20429;-65